Time;durP1;ratioP1;P1;durP2;ratioP2;P2;SDS_P1;SDS_P2;PMS_P1;PMS_P2;Temp;Humidity;BMP_temperature;BMP_pressure;BME280_temperature;BME280_humidity;BME280_pressure;Samples;Min_cycle;Max_cycle;Signal;HPM_P1;HPM_P2
2023/09/23 00:01:44;;;;;;;4.78;2.40;;;20.40;99.90;;;;;;5092697;28;20070;-81
2023/09/23 00:04:10;;;;;;;2.67;2.42;;;20.30;99.90;;;;;;5060790;27;20066;-79
2023/09/23 00:06:37;;;;;;;4.32;2.60;;;20.30;99.90;;;;;;5103953;27;20047;-81
2023/09/23 00:09:04;;;;;;;5.00;2.75;;;20.30;99.90;;;;;;5081101;27;20074;-81
2023/09/23 00:11:30;;;;;;;2.83;2.47;;;20.30;99.90;;;;;;5113797;27;20067;-82
2023/09/23 00:13:56;;;;;;;3.53;2.83;;;20.40;99.90;;;;;;5112161;27;20039;-81
2023/09/23 00:16:22;;;;;;;3.25;2.55;;;20.30;99.90;;;;;;5088978;27;20028;-80
2023/09/23 00:18:48;;;;;;;3.80;3.00;;;20.40;99.90;;;;;;5116232;27;20039;-82
2023/09/23 00:21:14;;;;;;;4.13;2.65;;;20.40;99.90;;;;;;5093496;28;20039;-82
2023/09/23 00:23:40;;;;;;;3.75;3.03;;;20.60;99.90;;;;;;5096295;27;20046;-80
2023/09/23 00:26:11;;;;;;;3.50;2.30;;;20.30;99.90;;;;;;5115260;27;20063;-80
2023/09/23 00:28:37;;;;;;;2.83;2.45;;;20.30;99.90;;;;;;5100535;27;20028;-82
2023/09/23 00:31:11;;;;;;;4.10;2.53;;;20.30;99.90;;;;;;5092746;27;20039;-82
2023/09/23 00:33:37;;;;;;;;;;;20.30;99.90;;;;;;5112334;27;20542;-82
2023/09/23 00:36:08;;;;;;;3.78;2.05;;;20.30;99.90;;;;;;5113529;27;19916;-83
2023/09/23 00:38:38;;;;;;;2.67;1.88;;;20.30;99.90;;;;;;5083855;28;20116;-81
2023/09/23 00:41:06;;;;;;;2.72;1.92;;;20.20;99.90;;;;;;5112405;27;20108;-82
2023/09/23 00:43:32;;;;;;;2.30;1.70;;;20.20;99.90;;;;;;5097364;28;20080;-79
2023/09/23 00:45:59;;;;;;;5.10;2.10;;;20.40;99.90;;;;;;5079698;28;20043;-81
2023/09/23 00:48:26;;;;;;;2.55;1.90;;;20.20;99.90;;;;;;5110474;27;20131;-84
2023/09/23 00:50:54;;;;;;;3.55;1.77;;;20.20;99.90;;;;;;5115571;27;20039;-83
2023/09/23 00:53:22;;;;;;;1.85;1.60;;;20.20;99.90;;;;;;5093616;28;20076;-84
2023/09/23 00:55:57;;;;;;;4.82;1.88;;;19.70;99.90;;;;;;5114614;27;20053;-84
2023/09/23 00:58:26;;;;;;;5.78;2.03;;;20.20;99.90;;;;;;5081036;28;20027;-84
2023/09/23 01:00:54;;;;;;;3.80;2.17;;;20.20;99.90;;;;;;5113364;27;20467;-84
2023/09/23 01:03:21;;;;;;;2.15;1.67;;;20.30;99.90;;;;;;5111202;27;20466;-82
2023/09/23 01:05:48;;;;;;;3.60;1.70;;;20.10;99.90;;;;;;5103496;28;20373;-83
2023/09/23 01:08:22;;;;;;;4.00;1.80;;;20.30;99.90;;;;;;5107600;28;20490;-83
2023/09/23 01:10:48;;;;;;;5.28;2.30;;;20.30;99.90;;;;;;5087383;28;20093;-81
2023/09/23 01:13:14;;;;;;;2.53;1.70;;;20.30;99.90;;;;;;5107247;28;20523;-82
2023/09/23 01:15:41;;;;;;;3.17;1.80;;;20.20;99.90;;;;;;5111144;27;20528;-81
2023/09/23 01:18:17;;;;;;;2.10;1.70;;;20.10;99.90;;;;;;5080459;28;20084;-80
2023/09/23 01:20:48;;;;;;;3.80;1.80;;;20.30;99.90;;;;;;5082893;27;20047;-81
2023/09/23 01:23:14;;;;;;;4.07;1.98;;;20.30;99.90;;;;;;5083314;28;20050;-79
2023/09/23 01:25:40;;;;;;;3.03;1.80;;;20.10;99.90;;;;;;5077898;28;20039;-81
2023/09/23 01:28:11;;;;;;;2.28;1.83;;;20.10;99.90;;;;;;5079082;28;20085;-82
2023/09/23 01:30:37;;;;;;;3.95;1.80;;;20.00;99.90;;;;;;5101623;28;20042;-83
2023/09/23 01:33:07;;;;;;;2.70;1.70;;;20.20;99.90;;;;;;5064999;28;20031;-81
2023/09/23 01:35:42;;;;;;;2.17;1.50;;;20.30;99.90;;;;;;5115674;28;20039;-82
2023/09/23 01:38:08;;;;;;;3.33;1.45;;;20.10;99.90;;;;;;5103246;28;20055;-81
2023/09/23 01:40:36;;;;;;;3.40;1.60;;;19.90;99.90;;;;;;5087283;28;20032;-82
2023/09/23 01:43:06;;;;;;;2.80;1.52;;;20.10;99.90;;;;;;5117420;27;20046;-81
2023/09/23 01:45:32;;;;;;;1.85;1.50;;;20.00;99.90;;;;;;5113507;28;20487;-81
2023/09/23 01:47:58;;;;;;;2.28;1.48;;;20.00;99.90;;;;;;5099906;27;20134;-82
2023/09/23 01:50:25;;;;;;;1.70;1.40;;;19.90;99.90;;;;;;5098793;27;20181;-81
2023/09/23 01:52:51;;;;;;;2.33;1.67;;;20.00;99.90;;;;;;5081274;28;20429;-78
2023/09/23 01:55:17;;;;;;;2.60;1.70;;;20.10;99.90;;;;;;5114269;27;20616;-78
2023/09/23 01:57:43;;;;;;;3.03;1.52;;;20.00;99.90;;;;;;5089180;27;20032;-81
2023/09/23 02:00:17;;;;;;;2.47;1.90;;;20.10;99.90;;;;;;5097070;28;21895;-78
2023/09/23 02:02:48;;;;;;;1.63;1.33;;;19.90;99.90;;;;;;5101487;27;20039;-80
2023/09/23 02:05:15;;;;;;;3.60;2.10;;;20.00;99.90;;;;;;5094989;27;20338;-81
2023/09/23 02:07:41;;;;;;;3.90;1.65;;;20.00;99.90;;;;;;5093860;27;20039;-80
2023/09/23 02:10:09;;;;;;;2.13;1.73;;;20.00;99.90;;;;;;5103303;27;20435;-80
2023/09/23 02:12:36;;;;;;;2.33;1.50;;;20.00;99.90;;;;;;5110245;27;20031;-81
2023/09/23 02:15:02;;;;;;;2.83;1.50;;;19.80;99.90;;;;;;5097637;27;20590;-83
2023/09/23 02:17:28;;;;;;;3.17;1.40;;;19.90;99.90;;;;;;5097215;27;20040;-79
2023/09/23 02:19:54;;;;;;;2.13;1.40;;;19.90;99.90;;;;;;5098039;27;20050;-81
2023/09/23 02:22:20;;;;;;;2.00;1.30;;;20.00;99.90;;;;;;5110667;27;20077;-80
2023/09/23 02:24:47;;;;;;;4.28;1.50;;;20.00;99.90;;;;;;5097221;27;20035;-80
2023/09/23 02:27:12;;;;;;;2.95;1.40;;;19.90;99.90;;;;;;5082750;27;20085;-80
2023/09/23 02:29:40;;;;;;;5.35;1.52;;;19.70;99.90;;;;;;5088142;27;20487;-81
2023/09/23 02:32:06;;;;;;;4.43;1.50;;;19.90;99.90;;;;;;5082951;27;20042;-79
2023/09/23 02:34:32;;;;;;;3.15;1.27;;;19.90;99.90;;;;;;5099433;27;20458;-80
2023/09/23 02:36:58;;;;;;;4.65;1.63;;;19.80;99.90;;;;;;5098392;27;20123;-80
2023/09/23 02:39:24;;;;;;;2.47;1.80;;;19.90;99.90;;;;;;5100818;27;20050;-82
2023/09/23 02:41:50;;;;;;;2.88;2.35;;;19.70;99.90;;;;;;5107944;27;20466;-79
2023/09/23 02:44:20;;;;;;;3.58;2.42;;;19.80;99.90;;;;;;5127606;27;20075;-80
2023/09/23 02:46:49;;;;;;;4.53;3.20;;;19.90;99.90;;;;;;5095781;27;20069;-79
2023/09/23 02:49:16;;;;;;;5.30;3.55;;;19.80;99.90;;;;;;5099566;28;20609;-80
2023/09/23 02:51:42;;;;;;;8.18;4.18;;;19.80;99.90;;;;;;5121110;27;20081;-78
2023/09/23 02:54:18;;;;;;;6.95;4.30;;;20.00;99.90;;;;;;5109873;27;20092;-81
2023/09/23 02:56:47;;;;;;;5.90;4.53;;;19.90;99.90;;;;;;5091003;27;20054;-80
2023/09/23 02:59:15;;;;;;;6.03;4.47;;;19.90;99.90;;;;;;5105233;27;20074;-80
2023/09/23 03:01:45;;;;;;;9.50;5.57;;;19.80;99.90;;;;;;5097597;27;20391;-85
2023/09/23 03:04:19;;;;;;;7.78;4.93;;;19.90;99.90;;;;;;5115407;27;20043;-80
2023/09/23 03:06:53;;;;;;;6.97;5.30;;;20.00;99.90;;;;;;5105864;27;20055;-81
2023/09/23 03:09:20;;;;;;;6.68;5.00;;;19.80;99.90;;;;;;5090585;27;20042;-81
2023/09/23 03:11:55;;;;;;;7.03;5.13;;;19.90;99.90;;;;;;5097299;27;20088;-81
2023/09/23 03:14:28;;;;;;;9.52;6.32;;;19.90;99.90;;;;;;5112072;27;20043;-81
2023/09/23 03:16:57;;;;;;;7.35;5.68;;;20.00;99.90;;;;;;5089109;27;20039;-82
2023/09/23 03:19:26;;;;;;;7.22;5.68;;;19.90;99.90;;;;;;5094558;27;20500;-80
2023/09/23 03:21:57;;;;;;;8.07;5.97;;;19.80;99.90;;;;;;5094257;27;20082;-81
2023/09/23 03:24:25;;;;;;;10.05;6.32;;;19.80;99.90;;;;;;5112995;27;20043;-83
2023/09/23 03:26:55;;;;;;;8.65;5.60;;;19.90;99.90;;;;;;5112040;27;21738;-82
2023/09/23 03:29:22;;;;;;;9.18;6.00;;;20.00;99.90;;;;;;5105244;27;20101;-81
2023/09/23 03:31:48;;;;;;;10.95;6.43;;;19.80;99.90;;;;;;5103552;27;20668;-82
2023/09/23 03:34:16;;;;;;;9.98;6.10;;;19.80;99.90;;;;;;5098039;27;20065;-84
2023/09/23 03:36:42;;;;;;;11.65;7.10;;;19.90;99.90;;;;;;5082181;27;20121;-82
2023/09/23 03:39:09;;;;;;;8.43;6.13;;;19.80;99.90;;;;;;5072003;27;20134;-81
2023/09/23 03:41:38;;;;;;;10.18;6.10;;;19.10;99.90;;;;;;5110663;27;20768;-81
2023/09/23 03:44:10;;;;;;;8.57;6.45;;;19.60;99.90;;;;;;5106505;27;20048;-81
2023/09/23 03:46:36;;;;;;;11.32;7.68;;;19.70;99.90;;;;;;5112113;27;20283;-82
2023/09/23 03:49:02;;;;;;;9.77;7.10;;;19.60;99.90;;;;;;5068148;28;21779;-79
2023/09/23 03:51:28;;;;;;;9.57;6.95;;;19.80;99.90;;;;;;5091861;27;20134;-82
2023/09/23 03:53:53;;;;;;;10.30;7.10;;;19.80;99.90;;;;;;5114227;27;20126;-80
2023/09/23 03:56:24;;;;;;;12.23;8.05;;;19.80;99.90;;;;;;5101333;27;20379;-81
2023/09/23 03:58:55;;;;;;;12.20;7.57;;;19.70;99.90;;;;;;5085238;28;20096;-81
2023/09/23 04:01:23;;;;;;;10.45;7.63;;;19.60;99.90;;;;;;5114376;27;20039;-81
2023/09/23 04:03:51;;;;;;;9.90;7.65;;;19.50;99.90;;;;;;5112536;27;20123;-79
2023/09/23 04:06:17;;;;;;;12.75;9.00;;;19.60;99.90;;;;;;5115931;27;20066;-83
2023/09/23 04:08:43;;;;;;;14.18;8.50;;;19.70;99.90;;;;;;5084060;27;20047;-81
2023/09/23 04:11:10;;;;;;;12.45;8.10;;;19.60;99.90;;;;;;5078025;27;20027;-84
2023/09/23 04:13:37;;;;;;;11.20;7.95;;;19.40;99.90;;;;;;5110958;27;20050;-80
2023/09/23 04:16:05;;;;;;;11.55;8.10;;;19.60;99.90;;;;;;5095156;28;20035;-85
2023/09/23 04:18:31;;;;;;;12.23;8.02;;;19.40;99.90;;;;;;5113199;27;20039;-82
2023/09/23 04:20:57;;;;;;;12.05;8.05;;;19.60;99.90;;;;;;5092478;28;21835;-81
2023/09/23 04:23:23;;;;;;;10.75;7.78;;;19.40;99.90;;;;;;5085110;27;20054;-81
2023/09/23 04:25:50;;;;;;;10.85;8.00;;;19.50;99.90;;;;;;5080299;27;20048;-79
2023/09/23 04:28:16;;;;;;;12.20;7.97;;;19.40;99.90;;;;;;5095473;27;20077;-79
2023/09/23 04:30:42;;;;;;;10.48;8.00;;;19.50;99.90;;;;;;5066279;27;20570;-78
2023/09/23 04:33:08;;;;;;;11.80;8.43;;;19.40;99.90;;;;;;5097769;27;20164;-80
2023/09/23 04:35:37;;;;;;;11.65;8.27;;;19.40;99.90;;;;;;5081382;28;20533;-80
2023/09/23 04:38:03;;;;;;;15.88;9.38;;;19.40;99.90;;;;;;5134028;27;20031;-81
2023/09/23 04:40:28;;;;;;;12.50;8.00;;;19.30;99.90;;;;;;5077976;28;20042;-82
2023/09/23 04:42:54;;;;;;;13.98;8.48;;;19.40;99.90;;;;;;5093809;27;20101;-79
2023/09/23 04:45:20;;;;;;;13.07;8.55;;;19.50;99.90;;;;;;5130604;27;20369;-82
2023/09/23 04:47:50;;;;;;;10.68;7.68;;;19.60;99.90;;;;;;5114425;27;20039;-83
2023/09/23 04:50:22;;;;;;;12.85;8.65;;;19.50;99.90;;;;;;5108212;27;20060;-82
2023/09/23 04:52:50;;;;;;;15.95;9.68;;;19.40;99.90;;;;;;5109432;28;20557;-77
2023/09/23 04:55:16;;;;;;;10.52;8.00;;;19.40;99.90;;;;;;5106805;28;20093;-80
2023/09/23 04:57:42;;;;;;;13.82;8.57;;;19.30;99.90;;;;;;5093594;28;20118;-81
2023/09/23 05:00:14;;;;;;;16.45;9.35;;;19.40;99.90;;;;;;5117796;27;20118;-81
2023/09/23 05:02:40;;;;;;;12.35;8.40;;;19.50;99.90;;;;;;5129888;27;20039;-77
2023/09/23 05:05:09;;;;;;;12.85;8.65;;;19.30;99.90;;;;;;5129535;27;20041;-80
2023/09/23 05:07:37;;;;;;;11.48;8.32;;;19.40;99.90;;;;;;5113205;27;20441;-78
2023/09/23 05:10:07;;;;;;;15.93;8.90;;;19.20;99.90;;;;;;5113351;28;20353;-80
2023/09/23 05:12:33;;;;;;;11.52;8.40;;;19.50;99.90;;;;;;5097302;28;20039;-83
2023/09/23 05:14:59;;;;;;;11.48;8.60;;;19.30;99.90;;;;;;5109764;28;20101;-80
2023/09/23 05:17:27;;;;;;;12.70;8.98;;;19.30;99.90;;;;;;5092201;28;20039;-81
2023/09/23 05:19:53;;;;;;;12.93;8.65;;;19.40;99.90;;;;;;5075790;28;20036;-78
2023/09/23 05:22:19;;;;;;;11.65;8.50;;;19.40;99.90;;;;;;5125602;27;20130;-79
2023/09/23 05:24:47;;;;;;;12.20;8.63;;;19.30;99.90;;;;;;5133508;27;20161;-80
2023/09/23 05:27:14;;;;;;;12.25;8.90;;;19.20;99.90;;;;;;5100783;27;20054;-79
2023/09/23 05:29:42;;;;;;;10.77;8.55;;;19.30;99.90;;;;;;5133013;27;20531;-80
2023/09/23 05:32:10;;;;;;;10.52;8.23;;;19.40;99.90;;;;;;5127583;27;20050;-83
2023/09/23 05:34:39;;;;;;;14.48;9.00;;;19.20;99.90;;;;;;5128890;27;20598;-78
2023/09/23 05:37:06;;;;;;;13.52;9.35;;;19.40;99.90;;;;;;5115126;27;20368;-81
2023/09/23 05:39:34;;;;;;;10.80;8.88;;;19.20;99.90;;;;;;5082857;27;20035;-82
2023/09/23 05:42:01;;;;;;;13.38;9.38;;;19.40;99.90;;;;;;5110076;27;20058;-78
2023/09/23 05:44:27;;;;;;;11.63;8.63;;;19.50;99.90;;;;;;5101638;27;20081;-80
2023/09/23 05:46:53;;;;;;;12.38;8.63;;;19.20;99.90;;;;;;5100024;27;20074;-77
2023/09/23 05:49:19;;;;;;;13.55;9.93;;;19.30;99.90;;;;;;5094784;27;20204;-80
2023/09/23 05:51:45;;;;;;;12.32;8.85;;;19.50;99.90;;;;;;5088954;27;20046;-80
2023/09/23 05:54:11;;;;;;;10.35;8.48;;;19.30;99.90;;;;;;5097094;27;20064;-81
2023/09/23 05:56:38;;;;;;;11.52;8.85;;;19.20;99.90;;;;;;5109060;27;20067;-84
2023/09/23 05:59:05;;;;;;;13.38;10.02;;;19.30;99.90;;;;;;5095718;27;20032;-79
2023/09/23 06:01:32;;;;;;;11.75;8.35;;;19.30;99.90;;;;;;5095364;27;20490;-81
2023/09/23 06:03:58;;;;;;;14.00;9.95;;;19.50;99.90;;;;;;5119356;27;20038;-79
2023/09/23 06:06:24;;;;;;;14.13;10.20;;;19.40;99.90;;;;;;5096079;27;20088;-80
2023/09/23 06:08:50;;;;;;;15.90;11.18;;;19.50;99.90;;;;;;5088726;27;20128;-80
2023/09/23 06:11:17;;;;;;;12.43;10.07;;;19.40;99.90;;;;;;5105770;27;20042;-78
2023/09/23 06:13:42;;;;;;;16.88;10.80;;;19.40;99.90;;;;;;5119667;27;20071;-80
2023/09/23 06:16:08;;;;;;;17.17;11.05;;;19.50;99.90;;;;;;5065692;28;20063;-82
2023/09/23 06:18:34;;;;;;;10.85;8.55;;;19.70;99.90;;;;;;5096930;27;20093;-81
2023/09/23 06:21:06;;;;;;;13.68;10.45;;;19.50;99.90;;;;;;5096588;27;20065;-80
2023/09/23 06:23:32;;;;;;;14.10;10.77;;;19.50;99.90;;;;;;5103558;27;20431;-84
2023/09/23 06:26:01;;;;;;;12.73;9.80;;;19.60;99.90;;;;;;5106387;27;20035;-82
2023/09/23 06:28:29;;;;;;;12.48;10.07;;;19.80;99.90;;;;;;5105272;27;20126;-80
2023/09/23 06:30:55;;;;;;;10.73;9.40;;;19.80;99.90;;;;;;5116294;27;20057;-80
2023/09/23 06:33:21;;;;;;;10.00;8.82;;;20.10;99.90;;;;;;5113584;27;20058;-81
2023/09/23 06:35:48;;;;;;;13.43;9.90;;;18.90;99.90;;;;;;5102636;27;20081;-80
2023/09/23 06:38:13;;;;;;;13.75;10.55;;;18.20;99.90;;;;;;5084156;27;20063;-81
2023/09/23 06:40:39;;;;;;;13.05;10.80;;;18.00;99.90;;;;;;5097242;27;20070;-83
2023/09/23 06:43:05;;;;;;;16.35;12.75;;;17.80;99.90;;;;;;5105203;27;20058;-83
2023/09/23 06:45:31;;;;;;;19.40;14.20;;;17.60;99.90;;;;;;5120264;27;20152;-82
2023/09/23 06:47:57;;;;;;;22.20;15.57;;;17.30;99.90;;;;;;5078586;27;20052;-79
2023/09/23 06:50:23;;;;;;;17.80;14.32;;;17.30;99.90;;;;;;5112945;27;20065;-83
2023/09/23 06:52:49;;;;;;;24.52;15.93;;;17.20;99.90;;;;;;5130752;27;20101;-81
2023/09/23 06:55:15;;;;;;;24.42;16.35;;;17.20;99.90;;;;;;5084735;27;20035;-80
2023/09/23 06:57:40;;;;;;;23.95;17.30;;;17.20;99.90;;;;;;5128134;27;20122;-83
2023/09/23 07:00:07;;;;;;;24.10;17.15;;;17.20;99.90;;;;;;5094322;27;20035;-79
2023/09/23 07:02:33;;;;;;;28.67;18.67;;;17.30;99.90;;;;;;5129597;27;20074;-82
2023/09/23 07:05:00;;;;;;;29.88;17.90;;;17.20;99.90;;;;;;5073592;27;20031;-83
2023/09/23 07:07:26;;;;;;;23.17;17.02;;;17.20;99.90;;;;;;5110340;27;20036;-81
2023/09/23 07:09:52;;;;;;;21.35;16.23;;;17.10;99.90;;;;;;5092326;27;20031;-83
2023/09/23 07:12:17;;;;;;;21.65;16.33;;;17.50;99.90;;;;;;5076225;28;20039;-81
2023/09/23 07:14:43;;;;;;;24.17;17.27;;;17.40;99.90;;;;;;5097424;27;20080;-82
2023/09/23 07:17:09;;;;;;;27.00;17.02;;;17.40;99.90;;;;;;5083933;28;20031;-82
2023/09/23 07:19:48;;;;;;;20.30;15.38;;;17.50;99.90;;;;;;5083519;27;20486;-79
2023/09/23 07:22:13;;;;;;;20.75;16.13;;;17.50;99.90;;;;;;5044585;28;20045;-81
2023/09/23 07:24:39;;;;;;;20.88;14.98;;;17.30;99.90;;;;;;5039612;28;20052;-80
2023/09/23 07:27:04;;;;;;;25.38;16.40;;;17.60;99.90;;;;;;5026289;28;20516;-81
2023/09/23 07:29:33;;;;;;;26.92;16.83;;;17.60;99.90;;;;;;5055671;28;20924;-78
2023/09/23 07:31:58;;;;;;;23.27;15.35;;;17.50;99.90;;;;;;5039441;28;20094;-80
2023/09/23 07:34:24;;;;;;;21.20;15.05;;;17.40;99.90;;;;;;5041080;28;20033;-82
2023/09/23 07:36:53;;;;;;;21.35;15.60;;;17.40;99.90;;;;;;5057009;28;20044;-80
2023/09/23 07:39:18;;;;;;;22.65;16.67;;;17.60;99.90;;;;;;5024106;28;20041;-79
2023/09/23 07:41:48;;;;;;;26.48;17.65;;;17.60;99.90;;;;;;5040640;28;20033;-81
2023/09/23 07:44:15;;;;;;;23.25;15.85;;;17.50;99.90;;;;;;5058154;28;20041;-81
2023/09/23 07:46:42;;;;;;;17.20;15.02;;;17.90;99.90;;;;;;5058138;28;20115;-80
2023/09/23 07:49:08;;;;;;;18.63;14.10;;;17.90;99.90;;;;;;5059652;28;20047;-80
2023/09/23 07:51:34;;;;;;;19.05;14.77;;;18.00;99.90;;;;;;5052314;28;20037;-81
2023/09/23 07:54:00;;;;;;;20.15;15.90;;;18.10;99.90;;;;;;5039048;28;20041;-80
2023/09/23 07:56:26;;;;;;;16.63;14.15;;;17.90;99.90;;;;;;5042860;28;20056;-79
2023/09/23 07:58:58;;;;;;;16.23;13.43;;;18.10;99.90;;;;;;5047980;28;20041;-85
2023/09/23 08:01:23;;;;;;;16.75;14.15;;;18.00;99.90;;;;;;5081351;28;20107;-85
2023/09/23 08:03:50;;;;;;;20.80;14.82;;;18.00;99.90;;;;;;5018536;28;20582;-82
2023/09/23 08:06:18;;;;;;;17.35;14.52;;;18.10;99.90;;;;;;5025652;28;20040;-85
2023/09/23 08:08:44;;;;;;;20.00;14.68;;;18.20;99.90;;;;;;5028608;28;20040;-84
2023/09/23 08:11:10;;;;;;;16.33;14.30;;;18.10;99.90;;;;;;5028227;28;20068;-79
2023/09/23 08:13:41;;;;;;;20.20;13.77;;;18.20;99.90;;;;;;5055977;28;20169;-83
2023/09/23 08:16:07;;;;;;;21.05;13.70;;;18.30;99.90;;;;;;5079366;28;20033;-81
2023/09/23 08:18:33;;;;;;;17.63;12.98;;;18.60;99.90;;;;;;5056576;28;20045;-81
2023/09/23 08:20:59;;;;;;;15.52;12.65;;;18.60;99.90;;;;;;5025324;28;20045;-79
2023/09/23 08:23:25;;;;;;;14.30;11.77;;;18.80;99.90;;;;;;5038859;28;20481;-80
2023/09/23 08:25:52;;;;;;;14.05;11.70;;;18.70;99.90;;;;;;5025559;28;20075;-81
2023/09/23 08:28:18;;;;;;;40.17;13.75;;;18.90;99.90;;;;;;5056516;28;20160;-81
2023/09/23 08:30:44;;;;;;;16.55;12.77;;;19.00;99.90;;;;;;5045087;28;20132;-81
2023/09/23 08:33:12;;;;;;;16.65;11.57;;;18.90;99.90;;;;;;5042128;28;20041;-79
2023/09/23 08:35:38;;;;;;;12.77;11.23;;;19.20;99.90;;;;;;5043582;28;20049;-82
2023/09/23 08:38:04;;;;;;;16.40;12.48;;;19.20;99.90;;;;;;5043140;28;20045;-80
2023/09/23 08:40:38;;;;;;;14.57;11.20;;;18.90;99.90;;;;;;5044766;28;20102;-80
2023/09/23 08:43:05;;;;;;;13.90;11.50;;;19.10;99.90;;;;;;5034833;28;20045;-80
2023/09/23 08:45:31;;;;;;;14.27;12.65;;;18.80;99.90;;;;;;5036265;28;20461;-80
2023/09/23 08:47:58;;;;;;;15.02;11.38;;;18.80;99.90;;;;;;5026478;28;20067;-81
2023/09/23 08:50:28;;;;;;;13.45;10.75;;;18.80;99.90;;;;;;5028634;28;20477;-80
2023/09/23 08:52:54;;;;;;;14.93;10.63;;;19.10;99.90;;;;;;5044866;28;20088;-80
2023/09/23 08:55:22;;;;;;;12.98;10.65;;;18.90;99.90;;;;;;5025654;28;20051;-80
2023/09/23 08:57:48;;;;;;;12.10;10.00;;;19.10;99.90;;;;;;5042689;28;20469;-80
2023/09/23 09:00:17;;;;;;;11.07;9.80;;;19.10;99.90;;;;;;5026723;28;20073;-80
2023/09/23 09:02:43;;;;;;;9.82;8.60;;;19.10;99.90;;;;;;5026950;28;20033;-80
2023/09/23 09:05:09;;;;;;;10.68;8.77;;;19.20;99.90;;;;;;5026285;28;20094;-81
2023/09/23 09:07:36;;;;;;;10.68;8.25;;;19.30;99.90;;;;;;5027407;28;20455;-81
2023/09/23 09:10:02;;;;;;;9.75;7.68;;;19.60;99.90;;;;;;5040948;28;20040;-82
2023/09/23 09:12:28;;;;;;;9.73;7.60;;;19.50;99.90;;;;;;5012315;28;20051;-80
2023/09/23 09:14:55;;;;;;;8.40;7.15;;;19.70;99.90;;;;;;5027705;28;20071;-70
2023/09/23 09:17:21;;;;;;;8.10;6.53;;;19.70;99.90;;;;;;5033452;28;20037;-79
2023/09/23 09:19:47;;;;;;;9.13;5.93;;;19.60;99.90;;;;;;5049481;28;20122;-79
2023/09/23 09:22:19;;;;;;;8.90;6.68;;;19.60;99.90;;;;;;5016794;28;20037;-80
2023/09/23 09:24:46;;;;;;;8.07;5.55;;;19.90;99.90;;;;;;5031858;28;20044;-78
2023/09/23 09:27:15;;;;;;;8.23;6.05;;;19.80;99.90;;;;;;5032949;28;20396;-79
2023/09/23 09:29:42;;;;;;;8.45;6.55;;;19.90;99.90;;;;;;5030825;28;20037;-79
2023/09/23 09:32:12;;;;;;;7.70;5.78;;;19.90;99.90;;;;;;5016231;28;20047;-79
2023/09/23 09:34:46;;;;;;;5.95;5.35;;;19.80;99.90;;;;;;5048377;28;20048;-78
2023/09/23 09:37:13;;;;;;;8.18;5.07;;;19.70;99.90;;;;;;5053037;28;20102;-79
2023/09/23 09:39:49;;;;;;;5.78;5.00;;;19.80;99.90;;;;;;5031390;28;20049;-78
2023/09/23 09:42:19;;;;;;;6.45;5.63;;;19.80;99.90;;;;;;5045506;28;20102;-81
2023/09/23 09:44:46;;;;;;;7.55;5.47;;;19.70;99.90;;;;;;5048525;28;20140;-79
2023/09/23 09:47:13;;;;;;;7.30;5.22;;;19.90;99.90;;;;;;5014885;28;20041;-79
2023/09/23 09:49:41;;;;;;;5.82;5.13;;;19.90;99.90;;;;;;5029229;28;20128;-78
2023/09/23 09:52:08;;;;;;;6.38;5.60;;;20.00;99.90;;;;;;5029775;28;20537;-79
2023/09/23 09:54:36;;;;;;;6.75;5.53;;;20.10;99.90;;;;;;5033024;28;20507;-79
2023/09/23 09:57:07;;;;;;;6.75;5.07;;;20.20;99.90;;;;;;5053672;28;20036;-84
2023/09/23 09:59:35;;;;;;;9.98;4.63;;;20.30;99.90;;;;;;5035777;28;20114;-85
2023/09/23 10:02:03;;;;;;;5.57;4.50;;;20.60;99.90;;;;;;5049406;28;20163;-77
2023/09/23 10:04:33;;;;;;;6.80;4.68;;;21.10;99.90;;;;;;5042049;28;20037;-78
2023/09/23 10:07:00;;;;;;;6.70;3.60;;;21.00;99.90;;;;;;5044335;28;20397;-77
2023/09/23 10:09:27;;;;;;;7.43;3.80;;;20.80;99.90;;;;;;5049095;28;20048;-77
2023/09/23 10:11:55;;;;;;;5.80;3.55;;;20.80;99.90;;;;;;5048595;28;20128;-77
2023/09/23 10:14:22;;;;;;;5.68;3.40;;;20.90;99.90;;;;;;5057562;28;20063;-78
2023/09/23 10:16:52;;;;;;;5.00;3.20;;;20.80;99.90;;;;;;5052537;28;20052;-78
2023/09/23 10:19:41;;;;;;;3.92;3.28;;;21.00;99.90;;;;;;5049763;28;20062;-77
2023/09/23 10:22:19;;;;;;;4.32;3.15;;;21.00;99.90;;;;;;5013849;28;20112;-77
2023/09/23 10:24:46;;;;;;;4.32;2.60;;;21.10;99.90;;;;;;5021756;28;20971;-79
2023/09/23 10:27:13;;;;;;;4.32;2.20;;;21.10;99.90;;;;;;5030860;28;20083;-77
2023/09/23 10:29:48;;;;;;;3.63;2.60;;;21.10;99.90;;;;;;5031680;28;20087;-77
2023/09/23 10:32:14;;;;;;;4.57;2.80;;;21.30;99.90;;;;;;5031385;28;20130;-80
2023/09/23 10:34:58;;;;;;;4.47;2.70;;;21.60;99.90;;;;;;5052019;28;20782;-77
2023/09/23 10:37:32;;;;;;;4.45;2.00;;;21.40;99.90;;;;;;5042856;28;20044;-78
2023/09/23 10:40:12;;;;;;;3.50;2.03;;;21.50;99.90;;;;;;5048502;28;20048;-79
2023/09/23 10:42:40;;;;;;;2.88;1.80;;;21.10;99.90;;;;;;5047755;28;20102;-79
2023/09/23 10:45:07;;;;;;;3.38;1.95;;;21.10;99.90;;;;;;5047137;28;20044;-79
2023/09/23 10:47:35;;;;;;;3.25;2.03;;;20.90;99.90;;;;;;5047925;28;20544;-77
2023/09/23 10:50:05;;;;;;;3.20;1.90;;;20.70;99.90;;;;;;5031100;28;20073;-78
2023/09/23 10:52:31;;;;;;;2.60;1.77;;;20.50;99.90;;;;;;5047318;28;20090;-77
2023/09/23 10:54:57;;;;;;;3.72;2.03;;;20.50;99.90;;;;;;5063431;28;20465;-78
2023/09/23 10:57:23;;;;;;;2.60;1.60;;;20.20;99.90;;;;;;5045554;28;20056;-78
2023/09/23 10:59:52;;;;;;;3.65;1.60;;;20.20;99.90;;;;;;5049505;28;20043;-79
2023/09/23 11:02:19;;;;;;;2.72;1.58;;;20.20;99.90;;;;;;5054398;28;20054;-80
2023/09/23 11:04:48;;;;;;;3.83;2.03;;;20.20;99.90;;;;;;5051579;28;20143;-79
2023/09/23 11:07:14;;;;;;;6.38;2.28;;;20.00;99.90;;;;;;5040213;28;20073;-79
2023/09/23 11:09:43;;;;;;;4.55;2.53;;;20.00;99.90;;;;;;5030376;28;20076;-79
2023/09/23 11:12:12;;;;;;;2.60;2.28;;;20.00;99.90;;;;;;5045382;28;20564;-79
2023/09/23 11:14:41;;;;;;;5.63;3.03;;;20.10;99.90;;;;;;5031480;28;20048;-80
2023/09/23 11:17:07;;;;;;;3.67;2.55;;;20.10;99.90;;;;;;5013596;28;20041;-82
2023/09/23 11:19:33;;;;;;;3.50;2.63;;;20.30;99.90;;;;;;5015635;28;20053;-82
2023/09/23 11:21:59;;;;;;;4.35;3.00;;;20.20;99.90;;;;;;5034618;28;20045;-81
2023/09/23 11:24:25;;;;;;;4.35;2.70;;;20.10;99.90;;;;;;5028272;28;20029;-81
2023/09/23 11:26:50;;;;;;;6.35;3.25;;;20.10;99.90;;;;;;5051291;28;20460;-81
2023/09/23 11:29:17;;;;;;;3.58;3.28;;;20.00;99.90;;;;;;5036225;28;20496;-80
2023/09/23 11:31:43;;;;;;;3.75;3.30;;;19.90;99.90;;;;;;5009032;28;20068;-82
2023/09/23 11:34:09;;;;;;;3.88;3.20;;;20.00;99.90;;;;;;5057027;28;20488;-81
2023/09/23 11:36:34;;;;;;;5.43;3.35;;;20.00;99.90;;;;;;5024817;28;20123;-84
2023/09/23 11:39:01;;;;;;;6.63;3.97;;;20.00;99.90;;;;;;5054994;28;20559;-80
2023/09/23 11:41:26;;;;;;;4.30;3.53;;;20.00;99.90;;;;;;5031340;28;20033;-79
2023/09/23 11:43:52;;;;;;;6.13;4.53;;;20.00;99.90;;;;;;5029340;28;20114;-81
2023/09/23 11:46:20;;;;;;;5.95;4.40;;;20.00;99.90;;;;;;5029203;28;20029;-81
2023/09/23 11:48:50;;;;;;;6.68;4.18;;;20.20;99.90;;;;;;5030178;28;20152;-81
2023/09/23 11:51:18;;;;;;;6.85;4.00;;;20.20;99.90;;;;;;5012889;28;20052;-83
2023/09/23 11:53:44;;;;;;;4.20;3.65;;;20.30;99.90;;;;;;5051905;28;20119;-80
2023/09/23 11:56:11;;;;;;;6.85;3.20;;;20.30;99.90;;;;;;5008376;28;20049;-81
2023/09/23 11:58:37;;;;;;;4.65;2.85;;;20.10;99.90;;;;;;5008876;28;20618;-80
2023/09/23 12:01:06;;;;;;;4.88;2.97;;;20.00;99.90;;;;;;5022490;28;20049;-82
2023/09/23 12:03:38;;;;;;;12.10;3.00;;;20.00;99.90;;;;;;5019675;28;20441;-83
2023/09/23 12:06:04;;;;;;;3.40;2.65;;;19.90;99.90;;;;;;5025921;28;20037;-83
2023/09/23 12:08:30;;;;;;;5.72;2.90;;;19.90;99.90;;;;;;5028040;28;20101;-82
2023/09/23 12:10:56;;;;;;;7.55;3.20;;;19.80;99.90;;;;;;5011713;28;20040;-81
2023/09/23 12:13:24;;;;;;;6.20;3.05;;;19.80;99.90;;;;;;5076164;28;20671;-82
2023/09/23 12:15:50;;;;;;;5.53;3.53;;;19.70;99.90;;;;;;5029685;28;20106;-81
2023/09/23 12:18:16;;;;;;;3.95;2.90;;;19.80;99.90;;;;;;5027599;28;20061;-80
2023/09/23 12:20:41;;;;;;;6.68;3.40;;;19.80;99.90;;;;;;5041996;28;20396;-80
2023/09/23 12:23:07;;;;;;;3.38;2.50;;;19.90;99.90;;;;;;5033127;28;20040;-82
2023/09/23 12:25:33;;;;;;;2.20;1.90;;;20.00;99.90;;;;;;5026966;28;20045;-78
2023/09/23 12:27:58;;;;;;;1.67;1.48;;;20.00;99.90;;;;;;5031570;28;20064;-81
2023/09/23 12:30:24;;;;;;;1.80;1.40;;;19.90;99.90;;;;;;5013254;28;20045;-83
2023/09/23 12:32:50;;;;;;;2.60;1.60;;;19.90;99.90;;;;;;5028490;28;20040;-81
2023/09/23 12:35:19;;;;;;;2.90;1.30;;;19.80;99.90;;;;;;5009953;28;20123;-81
2023/09/23 12:37:45;;;;;;;3.33;1.42;;;19.80;99.90;;;;;;5013924;28;20123;-81
2023/09/23 12:40:11;;;;;;;3.45;1.50;;;19.90;99.90;;;;;;5015812;28;20056;-81
2023/09/23 12:42:37;;;;;;;2.22;1.48;;;19.90;99.90;;;;;;5028747;28;20060;-79